Hayase Maru — JD2583 — position and weather

sailwx.info

Track history (hours):
 
Tides and Currents Weather Stations Pressure Air Temp Water Temp Dewpoint Dewpoint Depression Visibility Wind Speed Wind Dir Waves Ship Positions

Hayase Maru

Last reported at 2017-Dec-11 16:58 UTC. Time now 2017-Dec-13 08:59 UTC.
Position N 33°58' E 131°05'.

Length 73 m; draft 4 m.

Type: Ship. MMSI: 431000395.

Date/timePositionNaut miles runAvg speedWind from/ knotsBaromVisibWave heightAir tempDewpointWater temp
2017-Dec-11 16:58N 33°58' E 131°05'0 0.0
2017-Dec-11 16:28N 33°58' E 131°05'0 0.0
2017-Dec-11 15:58N 33°58' E 131°05'0 0.0
2017-Dec-11 15:28N 33°58' E 131°05'0 0.0
2017-Dec-11 14:58N 33°58' E 131°05'0 0.0
2017-Dec-11 14:28N 33°58' E 131°05'0 0.0
2017-Dec-11 13:58N 33°58' E 131°05'0 0.0
2017-Dec-11 13:28N 33°58' E 131°05'0 0.0
2017-Dec-11 12:58N 33°58' E 131°05'0 0.0
2017-Dec-11 12:28N 33°58' E 131°05'0 0.0
2017-Dec-11 11:58N 33°58' E 131°05'0 0.0
2017-Dec-11 11:28N 33°58' E 131°05'0 0.0
2017-Dec-11 10:58N 33°58' E 131°05'0 0.1
2017-Dec-11 10:28N 33°58' E 131°05'0 0.0
2017-Dec-11 09:58N 33°58' E 131°05'0 0.0
2017-Dec-11 09:28N 33°58' E 131°05'0 0.0
2017-Dec-11 08:58N 33°58' E 131°05'0 0.5
2017-Dec-11 08:30N 33°57' E 131°05'4 8.7
2017-Dec-11 08:00N 33°54' E 131°08'510.1
2017-Dec-11 07:30N 33°52' E 131°14'510.2
2017-Dec-11 07:01N 33°51' E 131°20'510.1
2017-Dec-11 06:30N 33°50' E 131°26'510.9
2017-Dec-11 06:00N 33°49' E 131°32'611.3
2017-Dec-11 05:27N 33°48' E 131°40'710.6
2017-Dec-11 04:46N 33°47' E 131°48'710.3
2017-Dec-11 04:06N 33°46' E 131°56'510.3
2017-Dec-11 03:38N 33°46' E 132°02'110.3
2017-Dec-11 03:30N 33°46' E 132°04'2510.9
2017-Dec-11 01:13N 33°53' E 132°32'511.4
2017-Dec-11 00:46N 33°55' E 132°38'311.6
2017-Dec-11 00:30N 33°57' E 132°41'7410.3
2017-Dec-10 17:15N 34°27' E 134°04'511.7
2017-Dec-10 16:49N 34°26' E 134°10'811.9
2017-Dec-10 16:11N 34°23' E 134°18'211.7
2017-Dec-10 16:00N 34°22' E 134°20'611.5
2017-Dec-10 15:30N 34°19' E 134°27'611.6
2017-Dec-10 15:00N 34°17' E 134°33'611.5
2017-Dec-10 14:30N 34°14' E 134°39'611.6
2017-Dec-10 13:57N 34°09' E 134°43'511.2
2017-Dec-10 13:30N 34°05' E 134°47'610.9
2017-Dec-10 12:57N 34°01' E 134°52'510.9
2017-Dec-10 12:29N 33°57' E 134°56'511.0
2017-Dec-10 11:59N 33°53' E 135°00'87 8.9
2017-Dec-10 02:12N 34°07' E 136°44'7311.6
2017-Dec-09 19:52N 34°33' E 138°07'3 9.5
2017-Dec-09 19:30N 34°33' E 138°11'5 9.3
2017-Dec-09 18:58N 34°33' E 138°17'610.0
2017-Dec-09 18:22N 34°34' E 138°25'5 9.8
2017-Dec-09 17:51N 34°34' E 138°31'3 9.5
2017-Dec-09 17:30N 34°34' E 138°35'6 9.4
2017-Dec-09 16:54N 34°34' E 138°42'5 9.3
2017-Dec-09 16:24N 34°34' E 138°47'4 9.0
2017-Dec-09 15:59N 34°35' E 138°52'4 8.5
2017-Dec-09 15:31N 34°36' E 138°56'5 9.8
2017-Dec-09 15:00N 34°39' E 139°01'510.5
2017-Dec-09 14:31N 34°42' E 139°06'5 9.8
2017-Dec-09 14:00N 34°45' E 139°11'510.3
2017-Dec-09 13:30N 34°48' E 139°16'5 9.8
2017-Dec-09 13:00N 34°50' E 139°21'510.5
2017-Dec-09 12:31N 34°51' E 139°28'611.9
2017-Dec-09 12:00N 34°51' E 139°35'810.6
2017-Dec-09 11:14N 34°51' E 139°45'2 9.0
2017-Dec-09 10:59N 34°51' E 139°48'10 9.8
2017-Dec-09 10:00N 34°54' E 139°59'710.7
2017-Dec-09 09:23N 34°57' E 140°06'512.2
2017-Dec-09 08:58N 34°60' E 140°11'  
2017-Dec-03 01:01N 34°58' E 140°06'014.2
2017-Dec-03 01:01N 34°58' E 140°06'1711.2
2017-Dec-02 23:32N 34°52' E 139°48'010.1
2017-Dec-02 23:30N 34°52' E 139°47'710.6
2017-Dec-02 22:48N 34°51' E 139°38'411.2
2017-Dec-02 22:26N 34°51' E 139°33'1611.1
2017-Dec-02 20:58N 34°46' E 139°14'712.5
2017-Dec-02 20:24N 34°42' E 139°07'511.5
2017-Dec-02 19:58N 34°39' E 139°03'510.4
2017-Dec-02 19:30N 34°36' E 138°58'1511.6
2017-Dec-02 18:14N 34°35' E 138°40'1113.1
2017-Dec-02 17:24N 34°35' E 138°27'612.9
2017-Dec-02 16:56N 34°34' E 138°19'612.3
2017-Dec-02 16:28N 34°34' E 138°12'161 9.9
2017-Dec-02 00:07N 33°56' E 135°03'312.0
2017-Dec-01 23:54N 33°59' E 135°03'511.8
2017-Dec-01 23:30N 34°04' E 135°03'510.4
2017-Dec-01 23:00N 34°07' E 135°07'0 0.4
2017-Dec-01 22:01N 34°07' E 135°08'0 0.0
2017-Dec-01 21:43N 34°07' E 135°08'0 0.2
2017-Dec-01 21:25N 34°07' E 135°08'0 0.0
2017-Dec-01 19:37N 34°07' E 135°08'0 0.0
2017-Dec-01 19:19N 34°07' E 135°08'0 0.0
2017-Dec-01 18:55N 34°07' E 135°08'0 0.0
2017-Dec-01 17:13N 34°07' E 135°08'  
Track history (hours):
 
Tides and Currents Weather Stations Pressure Air Temp Water Temp Dewpoint Dewpoint Depression Visibility Wind Speed Wind Dir Waves Ship Positions

Hayase Maru

Last reported at 2017-Dec-11 16:58 UTC. Time now 2017-Dec-13 08:59 UTC.
Position N 33°58' E 131°05'.

Length 73 m; draft 4 m.

Type: Ship. MMSI: 431000395.

Date/timePositionNaut miles runAvg speedWind from/ knotsBaromVisibWave heightAir tempDewpointWater temp
2017-Dec-11 16:58N 33°58' E 131°05'0 0.0
2017-Dec-11 16:28N 33°58' E 131°05'0 0.0
2017-Dec-11 15:58N 33°58' E 131°05'0 0.0
2017-Dec-11 15:28N 33°58' E 131°05'0 0.0
2017-Dec-11 14:58N 33°58' E 131°05'0 0.0
2017-Dec-11 14:28N 33°58' E 131°05'0 0.0
2017-Dec-11 13:58N 33°58' E 131°05'0 0.0
2017-Dec-11 13:28N 33°58' E 131°05'0 0.0
2017-Dec-11 12:58N 33°58' E 131°05'0 0.0
2017-Dec-11 12:28N 33°58' E 131°05'0 0.0
2017-Dec-11 11:58N 33°58' E 131°05'0 0.0
2017-Dec-11 11:28N 33°58' E 131°05'0 0.0
2017-Dec-11 10:58N 33°58' E 131°05'0 0.1
2017-Dec-11 10:28N 33°58' E 131°05'0 0.0
2017-Dec-11 09:58N 33°58' E 131°05'0 0.0
2017-Dec-11 09:28N 33°58' E 131°05'0 0.0
2017-Dec-11 08:58N 33°58' E 131°05'0 0.5
2017-Dec-11 08:30N 33°57' E 131°05'4 8.7
2017-Dec-11 08:00N 33°54' E 131°08'510.1
2017-Dec-11 07:30N 33°52' E 131°14'510.2
2017-Dec-11 07:01N 33°51' E 131°20'510.1
2017-Dec-11 06:30N 33°50' E 131°26'510.9
2017-Dec-11 06:00N 33°49' E 131°32'611.3
2017-Dec-11 05:27N 33°48' E 131°40'710.6
2017-Dec-11 04:46N 33°47' E 131°48'710.3
2017-Dec-11 04:06N 33°46' E 131°56'510.3
2017-Dec-11 03:38N 33°46' E 132°02'110.3
2017-Dec-11 03:30N 33°46' E 132°04'2510.9
2017-Dec-11 01:13N 33°53' E 132°32'511.4
2017-Dec-11 00:46N 33°55' E 132°38'311.6
2017-Dec-11 00:30N 33°57' E 132°41'7410.3
2017-Dec-10 17:15N 34°27' E 134°04'511.7
2017-Dec-10 16:49N 34°26' E 134°10'811.9
2017-Dec-10 16:11N 34°23' E 134°18'211.7
2017-Dec-10 16:00N 34°22' E 134°20'611.5
2017-Dec-10 15:30N 34°19' E 134°27'611.6
2017-Dec-10 15:00N 34°17' E 134°33'611.5
2017-Dec-10 14:30N 34°14' E 134°39'611.6
2017-Dec-10 13:57N 34°09' E 134°43'511.2
2017-Dec-10 13:30N 34°05' E 134°47'610.9
2017-Dec-10 12:57N 34°01' E 134°52'510.9
2017-Dec-10 12:29N 33°57' E 134°56'511.0
2017-Dec-10 11:59N 33°53' E 135°00'87 8.9
2017-Dec-10 02:12N 34°07' E 136°44'7311.6
2017-Dec-09 19:52N 34°33' E 138°07'3 9.5
2017-Dec-09 19:30N 34°33' E 138°11'5 9.3
2017-Dec-09 18:58N 34°33' E 138°17'610.0
2017-Dec-09 18:22N 34°34' E 138°25'5 9.8
2017-Dec-09 17:51N 34°34' E 138°31'3 9.5
2017-Dec-09 17:30N 34°34' E 138°35'6 9.4
2017-Dec-09 16:54N 34°34' E 138°42'5 9.3
2017-Dec-09 16:24N 34°34' E 138°47'4 9.0
2017-Dec-09 15:59N 34°35' E 138°52'4 8.5
2017-Dec-09 15:31N 34°36' E 138°56'5 9.8
2017-Dec-09 15:00N 34°39' E 139°01'510.5
2017-Dec-09 14:31N 34°42' E 139°06'5 9.8
2017-Dec-09 14:00N 34°45' E 139°11'510.3
2017-Dec-09 13:30N 34°48' E 139°16'5 9.8
2017-Dec-09 13:00N 34°50' E 139°21'510.5
2017-Dec-09 12:31N 34°51' E 139°28'611.9
2017-Dec-09 12:00N 34°51' E 139°35'810.6
2017-Dec-09 11:14N 34°51' E 139°45'2 9.0
2017-Dec-09 10:59N 34°51' E 139°48'10 9.8
2017-Dec-09 10:00N 34°54' E 139°59'710.7
2017-Dec-09 09:23N 34°57' E 140°06'512.2
2017-Dec-09 08:58N 34°60' E 140°11'  
2017-Dec-03 01:01N 34°58' E 140°06'014.2
2017-Dec-03 01:01N 34°58' E 140°06'1711.2
2017-Dec-02 23:32N 34°52' E 139°48'010.1
2017-Dec-02 23:30N 34°52' E 139°47'710.6
2017-Dec-02 22:48N 34°51' E 139°38'411.2
2017-Dec-02 22:26N 34°51' E 139°33'1611.1
2017-Dec-02 20:58N 34°46' E 139°14'712.5
2017-Dec-02 20:24N 34°42' E 139°07'511.5
2017-Dec-02 19:58N 34°39' E 139°03'510.4
2017-Dec-02 19:30N 34°36' E 138°58'1511.6
2017-Dec-02 18:14N 34°35' E 138°40'1113.1
2017-Dec-02 17:24N 34°35' E 138°27'612.9
2017-Dec-02 16:56N 34°34' E 138°19'612.3
2017-Dec-02 16:28N 34°34' E 138°12'161 9.9
2017-Dec-02 00:07N 33°56' E 135°03'312.0
2017-Dec-01 23:54N 33°59' E 135°03'511.8
2017-Dec-01 23:30N 34°04' E 135°03'510.4
2017-Dec-01 23:00N 34°07' E 135°07'0 0.4
2017-Dec-01 22:01N 34°07' E 135°08'0 0.0
2017-Dec-01 21:43N 34°07' E 135°08'0 0.2
2017-Dec-01 21:25N 34°07' E 135°08'0 0.0
2017-Dec-01 19:37N 34°07' E 135°08'0 0.0
2017-Dec-01 19:19N 34°07' E 135°08'0 0.0
2017-Dec-01 18:55N 34°07' E 135°08'0 0.0
2017-Dec-01 17:13N 34°07' E 135°08'  

Dump ship's entire track history